Overpeck, OH (45055)

6:23 AM EDT on June 24, 2017 (GMT -0400)
City View Heights | | Change Station
Active Advisory: Special Statement

Elev 733 ft 39.43 °N, 84.56 °W | Updated 5 seconds ago

Clear
Clear
60.7 °F
Feels Like 60.7 °F
N
0.0
Wind Variable Wind from West

Today
High -- | Low -- °F
--% Chance of Precip.
Yesterday
High -- | Low -- °F
Precip. -- in
Pressure 29.90 in
Visibility 10.0 miles
Clouds Clear
Dew Point 60 °F
Humidity 98%
Rainfall 0.00 in
Snow Depth Not available.
6:12 AM 9:09 PM
New Moon, 0% visible
METAR KHAO 240953Z AUTO 27004KT 10SM CLR 17/17 A2991 RMK AO2 SLP125 T01720172
Pressure 29.90 in
Visibility 10.0 miles
Clouds Clear
Dew Point 60 °F
Humidity 98%
Rainfall 0.00 in
Snow Depth Not available.
6:12 AM 9:09 PM
New Moon, 0% visible
METAR KHAO 240953Z AUTO 27004KT 10SM CLR 17/17 A2991 RMK AO2 SLP125 T01720172

Get Your Daily Forecast Email!

Thanks for signing up!

Be on the lookout for a verification email in your inbox.

You'll start receiving severe weather alerts in your inbox..

×

10-Day Weather Forecast

Almanac

Astronomy

Jun. 24, 2017 Rise Set
Actual Time
Civil Twilight
Nautical Twilight
Astronomical Twilight
Moon
Length of Visible Light
Length of Day
Tomorrow will be .
, % of the Moon is Illuminated

Today's Extremes

State Highs State Lows

Community

WunderPhotos

Category 6

Welcome to Category 6. This is the collective home for Weather Underground's featured writeups by Dr. Jeff Masters (right), Bob Henson (left), Chris Burt, and other regular contributors.

Nearby

Air Quality

  Air Quality AQ Index Pollutant
Not available.

Snow Depth

Station Depth Elevation

Earthquake Activity

City Distance Mag. Time & Date
Minimum magnitude displayed is 2.5.

Coastal Water Temperatures

Place Temperature

Stations

Nearby Weather Stations

Station Location Temp. Windchill Dew Point Humidity Wind Precip. Elev Updated Type
                   

Watches & Warnings

Special Statement
Issued: 4:24 AM EDT Jun. 24, 2017 – National Weather Service

... Patchy dense fog affect the region early this morning...

Clearing skies along with saturated soils have allowed patchy
dense fog to develop. Visibilities could drop as low as a quarter
mile in spots, making travel hazardous.

If driving and you encounter foggy areas, slow down and use your
low beam headlights, and leave plenty of distance ahead of you.